createdAt,value
2017-11-15T00:02:01.645Z,32.38
2017-11-15T00:04:28.254Z,29.95
2017-11-15T00:06:55.960Z,32.95
2017-11-15T00:09:22.454Z,35.15
2017-11-15T00:11:49.656Z,35.47
2017-11-15T00:14:16.155Z,32.70
2017-11-15T00:16:43.330Z,33.97
2017-11-15T00:19:09.772Z,30.45
2017-11-15T00:21:36.223Z,33.88
2017-11-15T00:24:02.665Z,28.27
2017-11-15T00:26:29.111Z,27.65
2017-11-15T00:28:55.704Z,33.33
2017-11-15T00:31:22.994Z,32.00
2017-11-15T00:33:49.445Z,29.17
2017-11-15T00:36:15.865Z,30.45
2017-11-15T00:38:42.320Z,28.08
2017-11-15T00:41:08.760Z,28.45
2017-11-15T00:43:35.189Z,27.58
2017-11-15T00:46:01.905Z,27.65
2017-11-15T00:48:29.184Z,25.58
2017-11-15T00:50:55.654Z,26.42
2017-11-15T00:53:22.160Z,24.30
2017-11-15T00:55:48.569Z,25.90
2017-11-15T00:58:14.996Z,21.65
2017-11-15T01:00:41.437Z,28.35
2017-11-15T01:03:08.823Z,26.75
2017-11-15T01:05:36.019Z,24.45
2017-11-15T01:08:02.486Z,29.65
2017-11-15T01:10:29.430Z,25.12
2017-11-15T01:12:57.263Z,25.25
2017-11-15T01:15:23.763Z,24.30
2017-11-15T01:17:50.935Z,23.52
2017-11-15T01:20:17.382Z,24.02
2017-11-15T01:22:43.849Z,25.65
2017-11-15T01:25:17.365Z,25.88
2017-11-15T01:27:43.827Z,29.70
2017-11-15T01:30:10.261Z,24.02
2017-11-15T01:32:36.891Z,25.95
2017-11-15T01:35:03.305Z,28.27
2017-11-15T01:37:29.755Z,21.50
2017-11-15T01:39:56.181Z,25.25
2017-11-15T01:42:22.647Z,23.20
2017-11-15T01:44:49.097Z,27.73
2017-11-15T01:47:15.640Z,28.33
2017-11-15T01:49:42.072Z,24.23
2017-11-15T01:52:08.489Z,27.35
2017-11-15T01:54:34.948Z,22.67
2017-11-15T01:57:01.497Z,26.77
2017-11-15T01:59:27.958Z,25.33
2017-11-15T02:01:54.423Z,27.90
2017-11-15T02:04:20.897Z,25.15
2017-11-15T02:06:47.364Z,20.10
2017-11-15T02:09:14.719Z,18.05
2017-11-15T02:11:41.940Z,19.73
2017-11-15T02:14:08.348Z,24.92
2017-11-15T02:16:34.845Z,21.62
2017-11-15T02:19:02.888Z,27.98
2017-11-15T02:21:29.314Z,26.90
2017-11-15T02:23:55.736Z,27.65
2017-11-15T02:26:22.120Z,27.80
2017-11-15T02:28:48.601Z,26.50
2017-11-15T02:31:15.816Z,26.60
2017-11-15T02:33:42.245Z,25.40
2017-11-15T02:36:08.826Z,22.75
2017-11-15T02:38:36.022Z,23.55
2017-11-15T02:41:02.472Z,17.92
2017-11-15T02:43:29.008Z,26.58
2017-11-15T02:45:55.544Z,23.90
2017-11-15T02:48:21.969Z,22.40
2017-11-15T02:50:48.415Z,23.40
2017-11-15T02:53:14.839Z,21.23
2017-11-15T02:55:41.337Z,25.92
2017-11-15T02:58:07.784Z,17.77
2017-11-15T03:00:34.639Z,25.58
2017-11-15T03:03:01.795Z,24.20
2017-11-15T03:05:29.065Z,20.70
2017-11-15T03:07:56.220Z,25.90
2017-11-15T03:10:23.440Z,24.17
2017-11-15T03:12:49.865Z,17.12
2017-11-15T03:15:16.301Z,20.48
2017-11-15T03:17:42.851Z,19.10
2017-11-15T03:20:09.267Z,20.12
2017-11-15T03:22:35.718Z,25.10
2017-11-15T03:25:02.148Z,17.42
2017-11-15T03:27:28.644Z,25.15
2017-11-15T03:29:55.807Z,18.10
2017-11-15T03:32:23.031Z,23.12
2017-11-15T03:34:49.518Z,22.65
2017-11-15T03:37:16.147Z,21.62
2017-11-15T03:39:42.703Z,20.90
2017-11-15T03:42:09.151Z,26.52
2017-11-15T03:44:35.626Z,24.12
2017-11-15T03:47:02.084Z,21.90
2017-11-15T03:49:28.565Z,14.80
2017-11-15T03:51:55.249Z,19.60
2017-11-15T03:54:21.955Z,23.58
2017-11-15T03:56:48.362Z,12.43
2017-11-15T03:59:15.676Z,17.30
2017-11-15T04:01:42.121Z,16.20
2017-11-15T04:04:08.538Z,20.33
2017-11-15T04:06:35.066Z,18.60
2017-11-15T04:09:01.504Z,18.45
2017-11-15T04:11:28.064Z,16.27
2017-11-15T04:13:54.585Z,16.50
2017-11-15T04:16:21.087Z,17.92
2017-11-15T04:18:47.537Z,20.67
2017-11-15T04:21:14.964Z,17.92
2017-11-15T04:23:41.384Z,19.65
2017-11-15T04:26:07.805Z,22.70
2017-11-15T04:28:34.369Z,18.55
2017-11-15T04:31:00.957Z,23.83
2017-11-15T04:33:28.161Z,23.48
2017-11-15T04:35:54.577Z,21.37
2017-11-15T04:38:20.991Z,24.50
2017-11-15T04:40:48.206Z,23.23
2017-11-15T04:43:14.623Z,24.87
2017-11-15T04:45:41.146Z,19.95
2017-11-15T04:48:08.125Z,22.40
2017-11-15T04:50:34.548Z,22.00
2017-11-15T04:53:01.007Z,17.87
2017-11-15T04:55:27.433Z,20.02
2017-11-15T04:57:53.908Z,20.88
2017-11-15T05:00:20.332Z,18.35
2017-11-15T05:02:46.745Z,19.30
2017-11-15T05:05:13.224Z,15.57
2017-11-15T05:07:39.629Z,22.73
2017-11-15T05:10:06.757Z,20.37
2017-11-15T05:12:40.133Z,20.90
2017-11-15T05:15:07.388Z,18.87
2017-11-15T05:17:34.562Z,19.98
2017-11-15T05:20:00.969Z,21.10
2017-11-15T05:22:27.594Z,22.60
2017-11-15T05:24:54.037Z,18.35
2017-11-15T05:27:20.629Z,18.15
2017-11-15T05:29:47.034Z,16.90
2017-11-15T05:32:14.197Z,13.13
2017-11-15T05:34:41.491Z,13.85
2017-11-15T05:37:07.962Z,19.15
2017-11-15T05:39:35.982Z,19.48
2017-11-15T05:42:03.281Z,15.40
2017-11-15T05:44:29.708Z,10.00
2017-11-15T05:46:56.177Z,10.98
2017-11-15T05:49:22.713Z,10.48
2017-11-15T05:51:49.174Z,17.37
2017-11-15T05:54:15.708Z,11.98
2017-11-15T05:56:42.172Z,17.67
2017-11-15T05:59:09.353Z,18.50
2017-11-15T06:01:35.769Z,17.17
2017-11-15T06:04:02.978Z,13.55
2017-11-15T06:06:29.394Z,7.82
2017-11-15T06:08:55.847Z,18.45
2017-11-15T06:11:22.290Z,13.30
2017-11-15T06:13:48.899Z,20.05
2017-11-15T06:16:15.248Z,18.45
2017-11-15T06:18:41.796Z,18.35
2017-11-15T06:21:08.250Z,19.90
2017-11-15T06:23:34.747Z,17.02
2017-11-15T06:26:01.944Z,17.15
2017-11-15T06:28:28.517Z,18.80
2017-11-15T06:30:55.012Z,18.73
2017-11-15T06:33:21.463Z,18.27
2017-11-15T06:35:47.889Z,23.38
2017-11-15T06:38:16.232Z,18.00
2017-11-15T06:40:42.685Z,18.35
2017-11-15T06:43:09.358Z,18.65
2017-11-15T06:45:35.713Z,16.83
2017-11-15T06:48:02.133Z,17.27
2017-11-15T06:50:28.703Z,19.05
2017-11-15T06:52:55.203Z,19.10
2017-11-15T06:55:21.667Z,16.80
2017-11-15T06:57:48.167Z,17.65
2017-11-15T07:00:14.652Z,19.33
2017-11-15T07:02:41.875Z,20.60
2017-11-15T07:05:08.378Z,19.70
2017-11-15T07:07:35.585Z,19.67
2017-11-15T07:10:02.062Z,21.65
2017-11-15T07:12:28.737Z,13.40
2017-11-15T07:14:55.250Z,18.37
2017-11-15T07:17:21.662Z,17.48
2017-11-15T07:19:48.138Z,18.33
2017-11-15T07:22:15.330Z,13.75
2017-11-15T07:24:41.850Z,16.40
2017-11-15T07:27:08.288Z,25.98
2017-11-15T07:29:34.777Z,23.12
2017-11-15T07:32:01.228Z,16.25
2017-11-15T07:34:27.680Z,22.90
2017-11-15T07:36:54.871Z,19.48
2017-11-15T07:39:21.270Z,17.60
2017-11-15T07:41:48.416Z,17.35
2017-11-15T07:44:15.439Z,20.67
2017-11-15T07:46:42.745Z,19.80
2017-11-15T07:49:09.938Z,20.25
2017-11-15T07:51:36.882Z,14.77
2017-11-15T07:54:03.363Z,16.80
2017-11-15T07:56:29.809Z,18.70
2017-11-15T07:58:56.282Z,17.87
2017-11-15T08:01:22.725Z,18.92
2017-11-15T08:03:49.200Z,18.62
2017-11-15T08:06:15.660Z,15.73
2017-11-15T08:08:43.020Z,16.87
2017-11-15T08:11:09.714Z,15.30
2017-11-15T08:13:36.115Z,17.10
2017-11-15T08:16:02.631Z,17.55
2017-11-15T08:18:29.116Z,16.05
2017-11-15T08:20:55.587Z,18.67
2017-11-15T08:23:22.128Z,15.80
2017-11-15T08:25:48.569Z,15.35
2017-11-15T08:28:15.053Z,16.42
2017-11-15T08:30:42.405Z,16.00
2017-11-15T08:33:09.023Z,16.30
2017-11-15T08:35:35.469Z,14.35
2017-11-15T08:38:16.912Z,14.95
2017-11-15T08:40:43.342Z,15.85
2017-11-15T08:43:09.758Z,13.27
2017-11-15T08:45:36.974Z,13.85
2017-11-15T08:48:03.409Z,13.82
2017-11-15T08:50:29.985Z,15.55
2017-11-15T08:52:57.133Z,14.50
2017-11-15T08:55:23.600Z,15.57
2017-11-15T08:57:50.085Z,12.73
2017-11-15T09:00:16.529Z,16.45
2017-11-15T09:02:43.110Z,14.43
2017-11-15T09:05:10.354Z,15.40
2017-11-15T09:07:37.028Z,14.95
2017-11-15T09:10:04.246Z,12.68
2017-11-15T09:12:30.680Z,14.90
2017-11-15T09:14:57.224Z,13.88
2017-11-15T09:17:23.664Z,12.40
2017-11-15T09:19:50.257Z,13.88
2017-11-15T09:22:16.808Z,15.00
2017-11-15T09:24:43.288Z,11.07
2017-11-15T09:27:09.764Z,14.90
2017-11-15T09:29:36.245Z,16.87
2017-11-15T09:32:02.692Z,13.35
2017-11-15T09:34:29.114Z,14.05
2017-11-15T09:36:55.592Z,13.70
2017-11-15T09:39:22.969Z,14.80
2017-11-15T09:41:50.145Z,12.30
2017-11-15T09:44:16.673Z,13.52
2017-11-15T09:46:50.303Z,14.10
2017-11-15T09:49:16.973Z,10.55
2017-11-15T09:51:43.457Z,11.23
2017-11-15T09:54:10.720Z,8.50
2017-11-15T09:56:37.233Z,19.45
2017-11-15T09:59:03.754Z,12.52
2017-11-15T10:01:30.183Z,11.68
2017-11-15T10:03:56.628Z,14.15
2017-11-15T10:06:23.145Z,12.18
2017-11-15T10:08:49.597Z,13.85
2017-11-15T10:11:16.086Z,15.07
2017-11-15T10:13:43.498Z,14.73
2017-11-15T10:16:09.922Z,13.98
2017-11-15T10:18:36.751Z,10.10
2017-11-15T10:21:03.213Z,13.60
2017-11-15T10:23:29.648Z,15.30
2017-11-15T10:25:56.158Z,12.90
2017-11-15T10:28:22.613Z,14.52
2017-11-15T10:30:49.081Z,13.20
2017-11-15T10:33:15.576Z,12.85
2017-11-15T10:35:42.017Z,14.00
2017-11-15T10:38:08.471Z,13.25
2017-11-15T10:40:34.972Z,12.80
2017-11-15T10:43:02.172Z,12.77
2017-11-15T10:45:28.656Z,12.05
2017-11-15T10:47:55.178Z,12.65
2017-11-15T10:50:21.734Z,12.50
2017-11-15T10:52:48.262Z,14.35
2017-11-15T10:55:15.142Z,11.12
2017-11-15T10:57:42.375Z,14.73
2017-11-15T11:00:09.586Z,14.90
2017-11-15T11:02:36.029Z,13.18
2017-11-15T11:05:02.461Z,11.23
2017-11-15T11:07:29.056Z,21.12
2017-11-15T11:09:56.257Z,13.07
2017-11-15T11:12:22.736Z,12.93
2017-11-15T11:14:49.307Z,11.12
2017-11-15T11:17:16.492Z,11.45
2017-11-15T11:19:42.964Z,12.68
2017-11-15T11:22:09.376Z,11.20
2017-11-15T11:24:37.591Z,12.00
2017-11-15T11:27:04.148Z,12.10
2017-11-15T11:29:30.771Z,11.32
2017-11-15T11:31:57.229Z,9.40
2017-11-15T11:34:23.694Z,10.52
2017-11-15T11:36:50.236Z,12.13
2017-11-15T11:39:16.753Z,11.40
2017-11-15T11:41:43.937Z,14.18
2017-11-15T11:44:10.444Z,8.63
2017-11-15T11:46:37.063Z,11.65
2017-11-15T11:49:03.468Z,15.05
2017-11-15T11:51:29.928Z,14.30
2017-11-15T11:53:56.482Z,11.70
2017-11-15T11:56:23.110Z,11.80
2017-11-15T11:58:49.624Z,11.90
2017-11-15T12:01:16.065Z,9.68
2017-11-15T12:03:42.553Z,14.68
2017-11-15T12:06:09.065Z,13.20
2017-11-15T12:08:37.037Z,12.45
2017-11-15T12:11:05.105Z,14.55
2017-11-15T12:13:31.720Z,16.27
2017-11-15T12:15:58.962Z,15.85
2017-11-15T12:18:26.156Z,15.23
2017-11-15T12:20:52.724Z,12.68
2017-11-15T12:23:19.213Z,8.70
2017-11-15T12:25:46.433Z,11.75
2017-11-15T12:28:13.668Z,10.95
2017-11-15T12:30:40.108Z,8.45
2017-11-15T12:33:06.583Z,15.23
2017-11-15T12:35:33.172Z,12.98
2017-11-15T12:37:59.653Z,14.68
2017-11-15T12:40:26.172Z,13.93
2017-11-15T12:42:52.729Z,13.75
2017-11-15T12:45:19.249Z,14.43
2017-11-15T12:47:45.714Z,14.23
2017-11-15T12:50:12.202Z,13.05
2017-11-15T12:52:38.767Z,16.70
2017-11-15T12:55:05.285Z,14.93
2017-11-15T12:57:31.827Z,13.87
2017-11-15T12:59:58.260Z,12.80
2017-11-15T13:02:24.735Z,18.20
2017-11-15T13:04:51.327Z,14.47
2017-11-15T13:07:18.529Z,14.90
2017-11-15T13:09:45.320Z,12.60
2017-11-15T13:12:11.781Z,12.17
2017-11-15T13:14:38.271Z,13.27
2017-11-15T13:17:05.185Z,10.90
2017-11-15T13:19:31.676Z,11.53
2017-11-15T13:21:58.300Z,9.60
2017-11-15T13:24:24.870Z,10.93
2017-11-15T13:26:51.368Z,13.33
2017-11-15T13:29:17.925Z,12.77
2017-11-15T13:31:44.364Z,12.90
2017-11-15T13:34:10.889Z,11.70
2017-11-15T13:36:37.331Z,13.87
2017-11-15T13:39:03.789Z,10.77
2017-11-15T13:41:30.290Z,10.67
2017-11-15T13:43:58.248Z,11.30
2017-11-15T13:46:26.383Z,12.77
2017-11-15T13:48:53.005Z,10.23
2017-11-15T13:51:19.516Z,9.30
2017-11-15T13:53:45.997Z,11.20
2017-11-15T13:56:12.506Z,11.83
2017-11-15T13:58:39.059Z,11.63
2017-11-15T14:01:05.669Z,10.70
2017-11-15T14:03:32.549Z,10.03
2017-11-15T14:05:59.180Z,12.80
2017-11-15T14:08:25.901Z,11.07
2017-11-15T14:10:54.747Z,10.57
2017-11-15T14:13:21.306Z,13.03
2017-11-15T14:15:48.593Z,10.67
2017-11-15T14:18:15.862Z,10.27
2017-11-15T14:20:42.382Z,11.40
2017-11-15T14:23:09.578Z,11.57
2017-11-15T14:25:36.012Z,10.60
2017-11-15T14:28:02.568Z,9.10
2017-11-15T14:30:29.057Z,6.67
2017-11-15T14:32:56.273Z,16.47
2017-11-15T14:35:22.688Z,10.03
2017-11-15T14:37:49.256Z,14.07
2017-11-15T14:40:15.763Z,12.70
2017-11-15T14:42:42.205Z,11.73
2017-11-15T14:45:08.695Z,12.47
2017-11-15T14:47:35.210Z,10.80
2017-11-15T14:50:01.850Z,13.70
2017-11-15T14:52:28.405Z,11.55
2017-11-15T14:54:54.897Z,13.13
2017-11-15T14:57:21.344Z,10.85
2017-11-15T14:59:47.808Z,12.95
2017-11-15T15:02:14.300Z,6.20
2017-11-15T15:04:41.489Z,6.93
2017-11-15T15:07:07.992Z,14.57
2017-11-15T15:09:35.298Z,17.25
2017-11-15T15:12:01.837Z,9.48
2017-11-15T15:14:29.585Z,7.12
2017-11-15T15:16:56.144Z,15.88
2017-11-15T15:19:22.619Z,7.25
2017-11-15T15:21:50.327Z,11.10
2017-11-15T15:24:17.076Z,19.23
2017-11-15T15:26:43.649Z,27.58
2017-11-15T15:29:10.127Z,21.70
2017-11-15T15:31:36.709Z,24.27
2017-11-15T15:34:03.264Z,14.98
2017-11-15T15:36:29.849Z,24.20
2017-11-15T15:38:57.023Z,15.25
2017-11-15T15:41:24.264Z,10.85
2017-11-15T15:43:51.746Z,19.70
2017-11-15T15:46:18.947Z,8.73
2017-11-15T15:48:45.478Z,12.15
2017-11-15T15:51:11.929Z,15.25
2017-11-15T15:53:38.465Z,19.73
2017-11-15T15:56:04.946Z,23.08
2017-11-15T15:58:32.485Z,22.17
2017-11-15T16:00:59.146Z,27.08
2017-11-15T16:03:26.348Z,17.15
2017-11-15T16:05:52.970Z,19.05
2017-11-15T16:08:19.409Z,21.37
2017-11-15T16:10:46.028Z,15.90
2017-11-15T16:13:13.435Z,11.77
2017-11-15T16:15:39.904Z,15.90
2017-11-15T16:18:08.310Z,22.17
2017-11-15T16:20:34.950Z,23.17
2017-11-15T16:23:01.837Z,13.52
2017-11-15T16:25:28.458Z,16.50
2017-11-15T16:27:55.258Z,26.65
2017-11-15T16:30:21.839Z,23.73
2017-11-15T16:32:49.288Z,19.35
2017-11-15T16:35:16.558Z,18.10
2017-11-15T16:37:44.051Z,21.92
2017-11-15T16:40:10.515Z,13.27
2017-11-15T16:42:37.081Z,17.98
2017-11-15T16:45:05.065Z,22.40
2017-11-15T16:47:32.332Z,21.87
2017-11-15T16:49:59.604Z,26.00
2017-11-15T16:52:26.243Z,25.80
2017-11-15T16:54:53.549Z,25.85
2017-11-15T16:57:20.031Z,15.27
2017-11-15T16:59:47.499Z,33.40
2017-11-15T17:02:14.868Z,27.85
2017-11-15T17:04:42.155Z,31.35
2017-11-15T17:07:13.900Z,14.80
2017-11-15T17:09:40.542Z,31.17
2017-11-15T17:12:08.548Z,27.58
2017-11-15T17:14:35.405Z,24.27
2017-11-15T17:17:01.863Z,30.92
2017-11-15T17:19:28.633Z,33.15
2017-11-15T17:21:55.199Z,22.40
2017-11-15T17:24:22.159Z,31.50
2017-11-15T17:26:48.930Z,24.80
2017-11-15T17:29:17.500Z,24.50
2017-11-15T17:31:44.793Z,27.98
2017-11-15T17:34:12.077Z,31.23
2017-11-15T17:36:39.441Z,18.30
2017-11-15T17:39:05.942Z,16.45
2017-11-15T17:41:32.394Z,20.15
2017-11-15T17:44:00.451Z,16.52
2017-11-15T17:46:27.116Z,9.75
2017-11-15T17:48:53.628Z,18.92
2017-11-15T17:51:20.081Z,15.30
2017-11-15T17:53:46.825Z,13.57
2017-11-15T17:56:14.144Z,14.30
2017-11-15T17:58:40.653Z,11.82
2017-11-15T18:01:11.028Z,27.50
2017-11-15T18:03:42.560Z,25.75
2017-11-15T18:06:09.413Z,27.08
2017-11-15T18:08:35.994Z,23.65
2017-11-15T18:11:04.130Z,24.40
2017-11-15T18:13:31.037Z,26.35
2017-11-15T18:16:01.947Z,29.63
2017-11-15T18:18:28.903Z,24.67
2017-11-15T18:20:56.568Z,24.17
2017-11-15T18:23:24.016Z,17.12
2017-11-15T18:25:50.572Z,16.70
2017-11-15T18:28:17.225Z,24.00
2017-11-15T18:30:44.596Z,23.90
2017-11-15T18:33:26.749Z,22.00
2017-11-15T18:35:53.366Z,28.25
2017-11-15T18:38:20.885Z,17.85
2017-11-15T18:40:48.124Z,17.37
2017-11-15T18:43:14.596Z,19.65
2017-11-15T18:45:41.146Z,25.48
2017-11-15T18:48:08.377Z,13.55
2017-11-15T18:50:35.663Z,35.47
2017-11-15T18:53:02.237Z,25.48
2017-11-15T18:55:28.956Z,29.40
2017-11-15T18:57:56.221Z,27.17
2017-11-15T19:00:22.733Z,21.60
2017-11-15T19:02:49.246Z,26.52
2017-11-15T19:05:15.860Z,39.00
2017-11-15T19:07:42.352Z,22.95
2017-11-15T19:10:08.874Z,24.75
2017-11-15T19:12:35.382Z,21.67
2017-11-15T19:15:02.474Z,22.92
2017-11-15T19:17:29.055Z,41.47
2017-11-15T19:19:56.405Z,31.48
2017-11-15T19:22:23.680Z,33.92
2017-11-15T19:24:51.122Z,34.58
2017-11-15T19:27:18.349Z,25.77
2017-11-15T19:29:44.905Z,31.10
2017-11-15T19:32:11.408Z,30.75
2017-11-15T19:34:37.859Z,16.87
2017-11-15T19:37:04.395Z,12.60
2017-11-15T19:39:30.959Z,28.45
2017-11-15T19:41:57.477Z,48.35
2017-11-15T19:44:24.198Z,44.33
2017-11-15T19:46:50.861Z,44.25
2017-11-15T19:49:17.399Z,23.95
2017-11-15T19:51:43.888Z,46.53
2017-11-15T19:54:11.107Z,43.53
2017-11-15T19:56:37.581Z,43.87
2017-11-15T19:59:05.288Z,34.83
2017-11-15T20:14:39.181Z,42.40
2017-11-15T20:17:05.915Z,39.92
2017-11-15T20:19:32.440Z,49.17
2017-11-15T20:21:59.903Z,37.13
2017-11-15T20:24:27.177Z,36.63
2017-11-15T20:26:53.725Z,15.02
2017-11-15T20:29:20.325Z,26.33
2017-11-15T20:31:47.635Z,46.72
2017-11-15T20:34:14.249Z,51.13
2017-11-15T20:36:42.073Z,40.78
2017-11-15T20:39:08.745Z,39.95
2017-11-15T20:41:36.063Z,44.42
2017-11-15T20:44:02.573Z,36.67
2017-11-15T20:46:29.239Z,40.12
2017-11-15T20:48:56.389Z,40.70
2017-11-15T20:51:22.913Z,42.78
2017-11-15T21:03:41.011Z,38.17
2017-11-15T21:06:11.686Z,49.15
2017-11-15T21:08:38.216Z,43.90
2017-11-15T21:11:05.032Z,43.30
2017-11-15T21:13:39.256Z,42.35
2017-11-15T21:16:06.617Z,46.08
2017-11-15T21:18:33.206Z,36.80
2017-11-15T21:20:59.747Z,44.45
2017-11-15T21:23:26.264Z,40.00
2017-11-15T21:25:52.852Z,46.15
2017-11-15T21:28:19.368Z,35.45
2017-11-15T21:30:45.999Z,47.08
2017-11-15T21:33:12.701Z,39.70
2017-11-15T21:35:39.921Z,49.45
2017-11-15T21:38:06.466Z,37.67
2017-11-15T21:40:33.030Z,50.20
2017-11-15T21:42:59.616Z,49.22
2017-11-15T21:45:26.066Z,48.75
2017-11-15T21:47:52.700Z,52.50
2017-11-15T21:50:19.222Z,44.88
2017-11-15T21:52:45.741Z,41.40
2017-11-15T21:55:12.265Z,45.67
2017-11-15T21:57:38.895Z,45.95
2017-11-15T22:00:05.465Z,46.88
2017-11-15T22:02:33.419Z,43.17
2017-11-15T22:04:59.881Z,43.03
2017-11-15T22:07:27.333Z,46.25
2017-11-15T22:09:53.886Z,43.35
2017-11-15T22:12:21.184Z,42.13
2017-11-15T22:14:47.631Z,48.60
2017-11-15T22:17:14.044Z,44.13
2017-11-15T22:19:40.596Z,40.30
2017-11-15T22:22:07.039Z,50.38
2017-11-15T22:24:33.609Z,44.60
2017-11-15T22:27:00.058Z,43.58
2017-11-15T22:29:27.383Z,55.05
2017-11-15T22:31:53.913Z,48.17
2017-11-15T22:34:21.153Z,49.25
2017-11-15T22:36:49.681Z,51.28
2017-11-15T22:39:16.113Z,54.88
2017-11-15T22:41:42.633Z,52.50
2017-11-15T22:44:09.308Z,49.58
2017-11-15T22:46:35.779Z,45.55
2017-11-15T22:49:03.024Z,40.20
2017-11-15T22:51:29.577Z,47.88
2017-11-15T22:53:56.033Z,46.45
2017-11-15T22:56:23.245Z,46.70
2017-11-15T22:58:49.757Z,40.30
2017-11-15T23:01:16.370Z,43.33
2017-11-15T23:03:42.797Z,44.80
2017-11-15T23:06:10.022Z,40.47
2017-11-15T23:08:36.515Z,39.72
2017-11-15T23:11:02.996Z,39.38
2017-11-15T23:13:29.473Z,38.60
2017-11-15T23:15:56.841Z,46.63
2017-11-15T23:18:24.014Z,37.25
2017-11-15T23:20:50.556Z,35.22
2017-11-15T23:23:17.123Z,37.75
2017-11-15T23:25:43.596Z,32.13
2017-11-15T23:28:10.041Z,40.75
2017-11-15T23:30:37.936Z,33.60
2017-11-15T23:33:05.480Z,40.83
2017-11-15T23:35:32.717Z,35.70
2017-11-15T23:37:59.479Z,32.10
2017-11-15T23:40:25.925Z,39.15
2017-11-15T23:42:52.343Z,31.80
2017-11-15T23:45:18.875Z,34.78
2017-11-15T23:47:45.308Z,44.80
2017-11-15T23:50:12.318Z,36.30
2017-11-15T23:52:38.845Z,40.88
2017-11-15T23:55:06.060Z,41.15
2017-11-15T23:57:32.672Z,24.67
2017-11-15T23:59:59.419Z,40.20
